sensor_id;sensor_type;location;lat;lon;timestamp;temperature;humidity
23839;DHT22;12100;44.384;20.272;2022-10-31T00:01:22;8.00;99.90
23839;DHT22;12100;44.384;20.272;2022-10-31T00:03:48;8.00;99.90
23839;DHT22;12100;44.384;20.272;2022-10-31T00:06:15;8.00;99.90
23839;DHT22;12100;44.384;20.272;2022-10-31T00:08:45;8.10;99.90
23839;DHT22;12100;44.384;20.272;2022-10-31T00:11:10;8.10;99.90
23839;DHT22;12100;44.384;20.272;2022-10-31T00:13:36;8.00;99.90
23839;DHT22;12100;44.384;20.272;2022-10-31T00:16:02;8.30;99.90
23839;DHT22;12100;44.384;20.272;2022-10-31T00:18:28;8.10;99.90
23839;DHT22;12100;44.384;20.272;2022-10-31T00:21:03;8.10;99.90
23839;DHT22;12100;44.384;20.272;2022-10-31T00:23:29;7.90;99.90
23839;DHT22;12100;44.384;20.272;2022-10-31T00:26:00;7.90;99.90
23839;DHT22;12100;44.384;20.272;2022-10-31T00:28:27;7.90;99.90
23839;DHT22;12100;44.384;20.272;2022-10-31T00:30:53;7.90;99.90
23839;DHT22;12100;44.384;20.272;2022-10-31T00:33:18;7.90;99.90
23839;DHT22;12100;44.384;20.272;2022-10-31T00:35:50;7.90;99.90
23839;DHT22;12100;44.384;20.272;2022-10-31T00:38:16;7.70;99.90
23839;DHT22;12100;44.384;20.272;2022-10-31T00:40:41;7.70;99.90
23839;DHT22;12100;44.384;20.272;2022-10-31T00:43:07;7.70;99.90
23839;DHT22;12100;44.384;20.272;2022-10-31T00:45:33;7.70;99.90
23839;DHT22;12100;44.384;20.272;2022-10-31T00:47:59;7.70;99.90
23839;DHT22;12100;44.384;20.272;2022-10-31T00:50:24;7.80;99.90
23839;DHT22;12100;44.384;20.272;2022-10-31T00:52:50;7.80;99.90
23839;DHT22;12100;44.384;20.272;2022-10-31T00:55:16;7.60;99.90
23839;DHT22;12100;44.384;20.272;2022-10-31T00:57:42;7.50;99.90
23839;DHT22;12100;44.384;20.272;2022-10-31T01:00:08;7.80;99.90
23839;DHT22;12100;44.384;20.272;2022-10-31T01:02:34;7.50;99.90
23839;DHT22;12100;44.384;20.272;2022-10-31T01:05:00;7.60;99.90
23839;DHT22;12100;44.384;20.272;2022-10-31T01:07:26;7.50;99.90
23839;DHT22;12100;44.384;20.272;2022-10-31T01:09:51;7.50;99.90
23839;DHT22;12100;44.384;20.272;2022-10-31T01:12:17;7.50;99.90
23839;DHT22;12100;44.384;20.272;2022-10-31T01:14:44;7.50;99.90
23839;DHT22;12100;44.384;20.272;2022-10-31T01:17:11;7.40;99.90
23839;DHT22;12100;44.384;20.272;2022-10-31T01:19:37;7.40;99.90
23839;DHT22;12100;44.384;20.272;2022-10-31T01:22:03;7.40;99.90
23839;DHT22;12100;44.384;20.272;2022-10-31T01:24:28;7.30;99.90
23839;DHT22;12100;44.384;20.272;2022-10-31T01:26:54;7.30;99.90
23839;DHT22;12100;44.384;20.272;2022-10-31T01:29:20;7.30;99.90
23839;DHT22;12100;44.384;20.272;2022-10-31T01:31:46;7.30;99.90
23839;DHT22;12100;44.384;20.272;2022-10-31T01:34:16;7.30;99.90
23839;DHT22;12100;44.384;20.272;2022-10-31T01:36:43;7.30;99.90
23839;DHT22;12100;44.384;20.272;2022-10-31T01:39:14;7.30;99.90
23839;DHT22;12100;44.384;20.272;2022-10-31T01:41:43;7.30;99.90
23839;DHT22;12100;44.384;20.272;2022-10-31T01:46:48;7.30;99.90
23839;DHT22;12100;44.384;20.272;2022-10-31T01:49:24;7.20;99.90
23839;DHT22;12100;44.384;20.272;2022-10-31T01:52:06;7.20;99.90
23839;DHT22;12100;44.384;20.272;2022-10-31T01:54:39;7.20;99.90
23839;DHT22;12100;44.384;20.272;2022-10-31T01:57:07;7.20;99.90
23839;DHT22;12100;44.384;20.272;2022-10-31T01:59:38;7.20;99.90
23839;DHT22;12100;44.384;20.272;2022-10-31T02:02:06;7.20;99.90
23839;DHT22;12100;44.384;20.272;2022-10-31T02:04:32;7.20;99.90
23839;DHT22;12100;44.384;20.272;2022-10-31T02:07:03;7.10;99.90
23839;DHT22;12100;44.384;20.272;2022-10-31T02:09:34;7.10;99.90
23839;DHT22;12100;44.384;20.272;2022-10-31T02:12:01;7.00;99.90
23839;DHT22;12100;44.384;20.272;2022-10-31T02:14:29;7.00;99.90
23839;DHT22;12100;44.384;20.272;2022-10-31T02:16:56;7.00;99.90
23839;DHT22;12100;44.384;20.272;2022-10-31T02:19:38;7.10;99.90
23839;DHT22;12100;44.384;20.272;2022-10-31T02:22:20;7.10;99.90
23839;DHT22;12100;44.384;20.272;2022-10-31T02:25:13;7.00;99.90
23839;DHT22;12100;44.384;20.272;2022-10-31T02:27:47;7.10;99.90
23839;DHT22;12100;44.384;20.272;2022-10-31T02:30:20;7.10;99.90
23839;DHT22;12100;44.384;20.272;2022-10-31T02:40:20;6.90;99.90
23839;DHT22;12100;44.384;20.272;2022-10-31T02:44:05;7.00;99.90
23839;DHT22;12100;44.384;20.272;2022-10-31T02:46:38;6.90;99.90
23839;DHT22;12100;44.384;20.272;2022-10-31T02:49:16;6.80;99.90
23839;DHT22;12100;44.384;20.272;2022-10-31T02:51:44;6.80;99.90
23839;DHT22;12100;44.384;20.272;2022-10-31T02:54:23;6.80;99.90
23839;DHT22;12100;44.384;20.272;2022-10-31T02:56:53;6.80;99.90
23839;DHT22;12100;44.384;20.272;2022-10-31T02:59:20;6.70;99.90
23839;DHT22;12100;44.384;20.272;2022-10-31T03:05:21;6.70;99.90
23839;DHT22;12100;44.384;20.272;2022-10-31T03:15:33;6.70;99.90
23839;DHT22;12100;44.384;20.272;2022-10-31T03:18:16;6.60;99.90
23839;DHT22;12100;44.384;20.272;2022-10-31T03:20:52;6.50;99.90
23839;DHT22;12100;44.384;20.272;2022-10-31T03:23:22;6.40;99.90
23839;DHT22;12100;44.384;20.272;2022-10-31T03:25:49;6.40;99.90
23839;DHT22;12100;44.384;20.272;2022-10-31T03:28:20;6.50;99.90
23839;DHT22;12100;44.384;20.272;2022-10-31T03:30:49;6.40;99.90
23839;DHT22;12100;44.384;20.272;2022-10-31T03:33:21;6.40;99.90
23839;DHT22;12100;44.384;20.272;2022-10-31T03:35:51;6.50;99.90
23839;DHT22;12100;44.384;20.272;2022-10-31T03:38:18;6.40;99.90
23839;DHT22;12100;44.384;20.272;2022-10-31T03:40:46;6.40;99.90
23839;DHT22;12100;44.384;20.272;2022-10-31T03:43:19;6.40;99.90
23839;DHT22;12100;44.384;20.272;2022-10-31T03:45:47;6.30;99.90
23839;DHT22;12100;44.384;20.272;2022-10-31T03:48:15;6.40;99.90
23839;DHT22;12100;44.384;20.272;2022-10-31T03:56:20;6.30;99.90
23839;DHT22;12100;44.384;20.272;2022-10-31T03:58:57;6.20;99.90
23839;DHT22;12100;44.384;20.272;2022-10-31T04:01:24;6.30;99.90
23839;DHT22;12100;44.384;20.272;2022-10-31T04:03:50;6.20;99.90
23839;DHT22;12100;44.384;20.272;2022-10-31T04:06:18;6.20;99.90
23839;DHT22;12100;44.384;20.272;2022-10-31T04:08:50;6.20;99.90
23839;DHT22;12100;44.384;20.272;2022-10-31T04:11:20;6.30;99.90
23839;DHT22;12100;44.384;20.272;2022-10-31T04:13:47;6.20;99.90
23839;DHT22;12100;44.384;20.272;2022-10-31T04:16:14;6.20;99.90
23839;DHT22;12100;44.384;20.272;2022-10-31T04:18:42;6.20;99.90
23839;DHT22;12100;44.384;20.272;2022-10-31T04:21:08;6.20;99.90
23839;DHT22;12100;44.384;20.272;2022-10-31T04:23:35;6.10;99.90
23839;DHT22;12100;44.384;20.272;2022-10-31T04:26:01;6.20;99.90
23839;DHT22;12100;44.384;20.272;2022-10-31T04:28:27;6.20;99.90
23839;DHT22;12100;44.384;20.272;2022-10-31T04:30:53;6.20;99.90
23839;DHT22;12100;44.384;20.272;2022-10-31T04:33:19;6.20;99.90
23839;DHT22;12100;44.384;20.272;2022-10-31T04:35:46;6.20;99.90
23839;DHT22;12100;44.384;20.272;2022-10-31T04:38:12;6.10;99.90
23839;DHT22;12100;44.384;20.272;2022-10-31T04:40:37;6.00;99.90
23839;DHT22;12100;44.384;20.272;2022-10-31T04:43:03;6.00;99.90
23839;DHT22;12100;44.384;20.272;2022-10-31T04:45:29;6.00;99.90
23839;DHT22;12100;44.384;20.272;2022-10-31T04:47:56;6.00;99.90
23839;DHT22;12100;44.384;20.272;2022-10-31T04:50:22;6.00;99.90
23839;DHT22;12100;44.384;20.272;2022-10-31T04:52:47;6.00;99.90
23839;DHT22;12100;44.384;20.272;2022-10-31T04:55:14;6.00;99.90
23839;DHT22;12100;44.384;20.272;2022-10-31T04:57:44;6.00;99.90
23839;DHT22;12100;44.384;20.272;2022-10-31T05:00:11;6.00;99.90
23839;DHT22;12100;44.384;20.272;2022-10-31T05:02:54;6.00;99.90
23839;DHT22;12100;44.384;20.272;2022-10-31T05:05:23;5.90;99.90
23839;DHT22;12100;44.384;20.272;2022-10-31T05:07:50;5.80;99.90
23839;DHT22;12100;44.384;20.272;2022-10-31T05:10:19;5.80;99.90
23839;DHT22;12100;44.384;20.272;2022-10-31T05:12:46;5.90;99.90
23839;DHT22;12100;44.384;20.272;2022-10-31T05:15:13;6.00;99.90
23839;DHT22;12100;44.384;20.272;2022-10-31T05:17:39;6.00;99.90
23839;DHT22;12100;44.384;20.272;2022-10-31T05:20:05;6.10;99.90
23839;DHT22;12100;44.384;20.272;2022-10-31T05:22:31;6.10;99.90
23839;DHT22;12100;44.384;20.272;2022-10-31T05:24:57;6.30;99.90
23839;DHT22;12100;44.384;20.272;2022-10-31T05:27:22;6.40;99.90
23839;DHT22;12100;44.384;20.272;2022-10-31T05:29:48;6.50;99.90
23839;DHT22;12100;44.384;20.272;2022-10-31T05:32:14;6.60;99.90
23839;DHT22;12100;44.384;20.272;2022-10-31T05:34:40;6.60;99.90
23839;DHT22;12100;44.384;20.272;2022-10-31T05:37:05;6.70;99.90
23839;DHT22;12100;44.384;20.272;2022-10-31T05:39:31;6.80;99.90
23839;DHT22;12100;44.384;20.272;2022-10-31T05:41:57;7.00;99.90
23839;DHT22;12100;44.384;20.272;2022-10-31T05:44:23;7.20;99.90
23839;DHT22;12100;44.384;20.272;2022-10-31T05:46:49;7.50;99.90
23839;DHT22;12100;44.384;20.272;2022-10-31T05:49:14;7.80;99.90
23839;DHT22;12100;44.384;20.272;2022-10-31T05:51:40;8.40;99.90
23839;DHT22;12100;44.384;20.272;2022-10-31T05:54:06;9.10;99.90
23839;DHT22;12100;44.384;20.272;2022-10-31T05:56:32;9.70;98.00
23839;DHT22;12100;44.384;20.272;2022-10-31T05:58:57;10.50;95.30
23839;DHT22;12100;44.384;20.272;2022-10-31T06:01:23;11.20;93.20
23839;DHT22;12100;44.384;20.272;2022-10-31T06:03:49;12.00;91.10
23839;DHT22;12100;44.384;20.272;2022-10-31T06:06:15;12.80;87.90
23839;DHT22;12100;44.384;20.272;2022-10-31T06:08:41;14.10;80.10
23839;DHT22;12100;44.384;20.272;2022-10-31T06:11:06;14.10;79.80
23839;DHT22;12100;44.384;20.272;2022-10-31T06:13:32;14.90;76.50
23839;DHT22;12100;44.384;20.272;2022-10-31T06:15:58;15.20;74.20
23839;DHT22;12100;44.384;20.272;2022-10-31T06:20:50;16.50;68.50
23839;DHT22;12100;44.384;20.272;2022-10-31T06:23:16;16.70;68.60
23839;DHT22;12100;44.384;20.272;2022-10-31T06:25:41;17.00;66.30
23839;DHT22;12100;44.384;20.272;2022-10-31T06:28:07;17.60;64.80
23839;DHT22;12100;44.384;20.272;2022-10-31T06:30:33;17.50;63.50
23839;DHT22;12100;44.384;20.272;2022-10-31T06:33:05;17.90;63.50
23839;DHT22;12100;44.384;20.272;2022-10-31T06:35:31;19.40;58.70
23839;DHT22;12100;44.384;20.272;2022-10-31T06:40:23;21.00;54.80
23839;DHT22;12100;44.384;20.272;2022-10-31T06:42:59;21.00;55.20
23839;DHT22;12100;44.384;20.272;2022-10-31T06:45:26;21.50;54.00
23839;DHT22;12100;44.384;20.272;2022-10-31T06:47:53;22.00;53.60
23839;DHT22;12100;44.384;20.272;2022-10-31T06:50:20;22.20;53.90
23839;DHT22;12100;44.384;20.272;2022-10-31T06:52:57;22.20;54.00
23839;DHT22;12100;44.384;20.272;2022-10-31T06:55:24;22.70;53.00
23839;DHT22;12100;44.384;20.272;2022-10-31T06:58:09;23.80;51.00
23839;DHT22;12100;44.384;20.272;2022-10-31T07:00:35;24.30;49.70
23839;DHT22;12100;44.384;20.272;2022-10-31T07:03:04;25.10;47.90
23839;DHT22;12100;44.384;20.272;2022-10-31T07:05:30;25.30;47.00
23839;DHT22;12100;44.384;20.272;2022-10-31T07:08:02;26.00;46.20
23839;DHT22;12100;44.384;20.272;2022-10-31T07:10:29;25.80;45.60
23839;DHT22;12100;44.384;20.272;2022-10-31T07:13:02;26.20;45.40
23839;DHT22;12100;44.384;20.272;2022-10-31T07:15:32;26.70;44.80
23839;DHT22;12100;44.384;20.272;2022-10-31T07:18:05;28.00;42.90
23839;DHT22;12100;44.384;20.272;2022-10-31T07:20:31;28.20;41.30
23839;DHT22;12100;44.384;20.272;2022-10-31T07:22:57;29.00;40.40
23839;DHT22;12100;44.384;20.272;2022-10-31T07:25:24;29.00;40.30
23839;DHT22;12100;44.384;20.272;2022-10-31T07:27:50;29.20;40.80
23839;DHT22;12100;44.384;20.272;2022-10-31T07:30:16;29.70;40.00
23839;DHT22;12100;44.384;20.272;2022-10-31T07:35:14;31.20;37.10
23839;DHT22;12100;44.384;20.272;2022-10-31T07:37:40;31.30;36.90
23839;DHT22;12100;44.384;20.272;2022-10-31T07:40:07;31.00;37.00
23839;DHT22;12100;44.384;20.272;2022-10-31T07:47:41;31.90;71.00
23839;DHT22;12100;44.384;20.272;2022-10-31T07:50:08;32.50;46.90
23839;DHT22;12100;44.384;20.272;2022-10-31T07:52:34;33.20;35.50
23839;DHT22;12100;44.384;20.272;2022-10-31T07:55:00;33.60;34.70
23839;DHT22;12100;44.384;20.272;2022-10-31T07:57:27;33.40;34.60
23839;DHT22;12100;44.384;20.272;2022-10-31T07:59:52;32.80;36.00
23839;DHT22;12100;44.384;20.272;2022-10-31T08:02:18;33.60;34.50
23839;DHT22;12100;44.384;20.272;2022-10-31T08:04:44;33.70;34.10
23839;DHT22;12100;44.384;20.272;2022-10-31T08:07:10;33.50;34.60
23839;DHT22;12100;44.384;20.272;2022-10-31T08:09:36;33.10;35.20
23839;DHT22;12100;44.384;20.272;2022-10-31T08:12:01;33.10;35.50
23839;DHT22;12100;44.384;20.272;2022-10-31T08:14:27;32.30;35.70
23839;DHT22;12100;44.384;20.272;2022-10-31T08:16:53;32.30;36.80
23839;DHT22;12100;44.384;20.272;2022-10-31T08:19:19;32.00;36.80
23839;DHT22;12100;44.384;20.272;2022-10-31T08:21:45;31.50;37.80
23839;DHT22;12100;44.384;20.272;2022-10-31T08:24:11;29.20;41.00
23839;DHT22;12100;44.384;20.272;2022-10-31T08:26:37;29.10;41.60
23839;DHT22;12100;44.384;20.272;2022-10-31T08:29:03;28.20;44.60
23839;DHT22;12100;44.384;20.272;2022-10-31T08:31:29;27.20;46.70
23839;DHT22;12100;44.384;20.272;2022-10-31T08:33:55;26.00;50.10
23839;DHT22;12100;44.384;20.272;2022-10-31T08:36:21;25.50;50.70
23839;DHT22;12100;44.384;20.272;2022-10-31T08:38:47;25.20;51.50
23839;DHT22;12100;44.384;20.272;2022-10-31T08:41:13;24.80;53.10
23839;DHT22;12100;44.384;20.272;2022-10-31T08:43:39;24.50;54.20
23839;DHT22;12100;44.384;20.272;2022-10-31T08:46:06;24.30;54.80
23839;DHT22;12100;44.384;20.272;2022-10-31T08:48:32;24.20;55.60
23839;DHT22;12100;44.384;20.272;2022-10-31T08:50:58;24.20;56.10
23839;DHT22;12100;44.384;20.272;2022-10-31T08:53:25;24.30;55.20
23839;DHT22;12100;44.384;20.272;2022-10-31T08:55:54;24.00;56.10
23839;DHT22;12100;44.384;20.272;2022-10-31T08:58:21;24.00;57.20
23839;DHT22;12100;44.384;20.272;2022-10-31T09:00:48;24.20;56.90
23839;DHT22;12100;44.384;20.272;2022-10-31T09:03:26;24.90;55.30
23839;DHT22;12100;44.384;20.272;2022-10-31T09:05:56;25.40;54.10
23839;DHT22;12100;44.384;20.272;2022-10-31T09:08:22;25.50;54.00
23839;DHT22;12100;44.384;20.272;2022-10-31T09:10:48;25.20;54.10
23839;DHT22;12100;44.384;20.272;2022-10-31T09:13:19;24.90;54.90
23839;DHT22;12100;44.384;20.272;2022-10-31T09:15:47;25.20;54.80
23839;DHT22;12100;44.384;20.272;2022-10-31T09:18:15;25.40;54.70
23839;DHT22;12100;44.384;20.272;2022-10-31T09:20:43;25.60;54.50
23839;DHT22;12100;44.384;20.272;2022-10-31T09:23:18;25.60;54.50
23839;DHT22;12100;44.384;20.272;2022-10-31T09:25:45;25.60;53.80
23839;DHT22;12100;44.384;20.272;2022-10-31T09:28:13;26.00;53.00
23839;DHT22;12100;44.384;20.272;2022-10-31T09:30:39;26.40;52.90
23839;DHT22;12100;44.384;20.272;2022-10-31T09:33:12;26.80;52.00
23839;DHT22;12100;44.384;20.272;2022-10-31T09:35:38;27.50;49.90
23839;DHT22;12100;44.384;20.272;2022-10-31T09:38:08;29.30;46.40
23839;DHT22;12100;44.384;20.272;2022-10-31T09:40:43;30.10;43.90
23839;DHT22;12100;44.384;20.272;2022-10-31T09:43:31;31.30;42.30
23839;DHT22;12100;44.384;20.272;2022-10-31T09:51:23;34.60;35.90
23839;DHT22;12100;44.384;20.272;2022-10-31T09:56:21;36.90;32.50
23839;DHT22;12100;44.384;20.272;2022-10-31T09:59:01;36.60;33.70
23839;DHT22;12100;44.384;20.272;2022-10-31T10:01:51;37.20;31.70
23839;DHT22;12100;44.384;20.272;2022-10-31T10:07:35;37.00;31.50
23839;DHT22;12100;44.384;20.272;2022-10-31T10:10:50;37.50;31.40
23839;DHT22;12100;44.384;20.272;2022-10-31T10:23:55;38.10;31.20
23839;DHT22;12100;44.384;20.272;2022-10-31T10:26:41;37.90;31.10
23839;DHT22;12100;44.384;20.272;2022-10-31T10:29:38;38.70;30.10
23839;DHT22;12100;44.384;20.272;2022-10-31T10:32:17;39.50;28.20
23839;DHT22;12100;44.384;20.272;2022-10-31T10:34:50;39.70;28.50
23839;DHT22;12100;44.384;20.272;2022-10-31T10:37:36;41.00;27.40
23839;DHT22;12100;44.384;20.272;2022-10-31T10:40:17;41.20;27.00
23839;DHT22;12100;44.384;20.272;2022-10-31T10:45:58;40.10;27.80
23839;DHT22;12100;44.384;20.272;2022-10-31T10:57:05;41.40;26.30
23839;DHT22;12100;44.384;20.272;2022-10-31T10:59:35;41.40;26.30
23839;DHT22;12100;44.384;20.272;2022-10-31T11:02:03;40.20;27.00
23839;DHT22;12100;44.384;20.272;2022-10-31T11:04:32;40.70;26.40
23839;DHT22;12100;44.384;20.272;2022-10-31T11:07:08;41.40;25.90
23839;DHT22;12100;44.384;20.272;2022-10-31T11:09:35;41.80;25.70
23839;DHT22;12100;44.384;20.272;2022-10-31T11:12:20;41.60;26.10
23839;DHT22;12100;44.384;20.272;2022-10-31T11:14:57;41.90;25.40
23839;DHT22;12100;44.384;20.272;2022-10-31T11:17:32;41.90;24.90
23839;DHT22;12100;44.384;20.272;2022-10-31T11:22:46;41.90;24.80
23839;DHT22;12100;44.384;20.272;2022-10-31T11:25:23;41.90;24.50
23839;DHT22;12100;44.384;20.272;2022-10-31T11:30:25;40.90;25.20
23839;DHT22;12100;44.384;20.272;2022-10-31T11:32:51;40.80;25.30
23839;DHT22;12100;44.384;20.272;2022-10-31T11:35:19;40.80;25.20
23839;DHT22;12100;44.384;20.272;2022-10-31T11:37:48;40.40;25.50
23839;DHT22;12100;44.384;20.272;2022-10-31T11:42:42;39.90;25.90
23839;DHT22;12100;44.384;20.272;2022-10-31T11:45:17;40.10;25.30
23839;DHT22;12100;44.384;20.272;2022-10-31T11:47:49;40.20;24.70
23839;DHT22;12100;44.384;20.272;2022-10-31T11:50:26;40.20;25.20
23839;DHT22;12100;44.384;20.272;2022-10-31T11:52:53;40.00;25.10
23839;DHT22;12100;44.384;20.272;2022-10-31T11:55:38;40.00;25.10
23839;DHT22;12100;44.384;20.272;2022-10-31T11:58:20;40.00;25.20
23839;DHT22;12100;44.384;20.272;2022-10-31T12:00:50;39.70;25.60
23839;DHT22;12100;44.384;20.272;2022-10-31T12:08:38;38.20;26.60
23839;DHT22;12100;44.384;20.272;2022-10-31T12:16:28;37.60;26.60
23839;DHT22;12100;44.384;20.272;2022-10-31T12:21:59;33.20;31.50
23839;DHT22;12100;44.384;20.272;2022-10-31T12:24:42;34.20;30.10
23839;DHT22;12100;44.384;20.272;2022-10-31T12:36:00;35.50;28.60
23839;DHT22;12100;44.384;20.272;2022-10-31T12:52:36;27.20;41.00
23839;DHT22;12100;44.384;20.272;2022-10-31T12:57:44;25.80;45.20
23839;DHT22;12100;44.384;20.272;2022-10-31T13:00:16;25.50;45.80
23839;DHT22;12100;44.384;20.272;2022-10-31T13:08:22;25.00;47.80
23839;DHT22;12100;44.384;20.272;2022-10-31T13:11:02;24.70;48.20
23839;DHT22;12100;44.384;20.272;2022-10-31T13:13:44;24.50;48.90
23839;DHT22;12100;44.384;20.272;2022-10-31T13:16:19;24.30;49.20
23839;DHT22;12100;44.384;20.272;2022-10-31T13:18:50;24.20;49.40
23839;DHT22;12100;44.384;20.272;2022-10-31T13:21:36;24.20;49.60
23839;DHT22;12100;44.384;20.272;2022-10-31T13:24:07;24.20;49.70
23839;DHT22;12100;44.384;20.272;2022-10-31T13:32:10;24.10;49.70
23839;DHT22;12100;44.384;20.272;2022-10-31T13:34:40;24.00;50.00
23839;DHT22;12100;44.384;20.272;2022-10-31T13:45:16;23.60;50.80
23839;DHT22;12100;44.384;20.272;2022-10-31T13:47:43;23.60;50.90
23839;DHT22;12100;44.384;20.272;2022-10-31T13:50:19;23.50;50.50
23839;DHT22;12100;44.384;20.272;2022-10-31T13:52:45;23.50;51.30
23839;DHT22;12100;44.384;20.272;2022-10-31T13:55:38;23.40;51.20
23839;DHT22;12100;44.384;20.272;2022-10-31T13:58:28;23.40;51.50
23839;DHT22;12100;44.384;20.272;2022-10-31T14:03:30;23.10;51.40
23839;DHT22;12100;44.384;20.272;2022-10-31T14:05:56;22.90;51.50
23839;DHT22;12100;44.384;20.272;2022-10-31T14:08:23;22.90;52.00
23839;DHT22;12100;44.384;20.272;2022-10-31T14:10:51;22.80;51.90
23839;DHT22;12100;44.384;20.272;2022-10-31T14:13:34;22.70;52.20
23839;DHT22;12100;44.384;20.272;2022-10-31T14:16:23;22.60;51.90
23839;DHT22;12100;44.384;20.272;2022-10-31T14:19:06;22.50;51.90
23839;DHT22;12100;44.384;20.272;2022-10-31T14:21:41;22.50;52.40
23839;DHT22;12100;44.384;20.272;2022-10-31T14:27:42;22.40;52.30
23839;DHT22;12100;44.384;20.272;2022-10-31T14:34:52;22.00;53.10
23839;DHT22;12100;44.384;20.272;2022-10-31T14:53:33;21.30;54.80
23839;DHT22;12100;44.384;20.272;2022-10-31T14:56:00;21.00;55.30
23839;DHT22;12100;44.384;20.272;2022-10-31T14:58:52;20.90;55.80
23839;DHT22;12100;44.384;20.272;2022-10-31T15:01:29;20.70;56.00
23839;DHT22;12100;44.384;20.272;2022-10-31T15:18:59;20.60;56.30
23839;DHT22;12100;44.384;20.272;2022-10-31T15:21:27;19.80;59.50
23839;DHT22;12100;44.384;20.272;2022-10-31T15:23:56;19.60;59.70
23839;DHT22;12100;44.384;20.272;2022-10-31T15:26:31;19.50;60.60
23839;DHT22;12100;44.384;20.272;2022-10-31T15:29:02;19.40;60.80
23839;DHT22;12100;44.384;20.272;2022-10-31T15:31:28;19.30;61.40
23839;DHT22;12100;44.384;20.272;2022-10-31T15:34:00;19.10;62.40
23839;DHT22;12100;44.384;20.272;2022-10-31T15:41:30;19.00;63.40
23839;DHT22;12100;44.384;20.272;2022-10-31T15:44:01;18.60;64.70
23839;DHT22;12100;44.384;20.272;2022-10-31T15:46:28;18.40;65.50
23839;DHT22;12100;44.384;20.272;2022-10-31T15:48:54;18.30;66.20
23839;DHT22;12100;44.384;20.272;2022-10-31T15:51:32;18.20;66.60
23839;DHT22;12100;44.384;20.272;2022-10-31T15:53:59;18.10;67.00
23839;DHT22;12100;44.384;20.272;2022-10-31T15:56:30;18.00;67.40
23839;DHT22;12100;44.384;20.272;2022-10-31T15:58:58;17.90;67.80
23839;DHT22;12100;44.384;20.272;2022-10-31T16:01:31;17.80;68.20
23839;DHT22;12100;44.384;20.272;2022-10-31T16:04:15;17.70;68.60
23839;DHT22;12100;44.384;20.272;2022-10-31T16:06:45;17.60;68.90
23839;DHT22;12100;44.384;20.272;2022-10-31T16:09:23;17.60;69.90
23839;DHT22;12100;44.384;20.272;2022-10-31T16:11:49;17.40;70.70
23839;DHT22;12100;44.384;20.272;2022-10-31T16:14:18;17.30;71.80
23839;DHT22;12100;44.384;20.272;2022-10-31T16:16:49;17.20;72.20
23839;DHT22;12100;44.384;20.272;2022-10-31T16:19:19;17.10;72.50
23839;DHT22;12100;44.384;20.272;2022-10-31T16:21:47;17.00;72.90
23839;DHT22;12100;44.384;20.272;2022-10-31T16:24:26;16.90;73.80
23839;DHT22;12100;44.384;20.272;2022-10-31T16:26:55;16.80;74.20
23839;DHT22;12100;44.384;20.272;2022-10-31T16:31:51;16.60;75.90
23839;DHT22;12100;44.384;20.272;2022-10-31T16:34:20;16.40;77.00
23839;DHT22;12100;44.384;20.272;2022-10-31T16:36:46;16.20;77.40
23839;DHT22;12100;44.384;20.272;2022-10-31T16:39:12;16.10;77.90
23839;DHT22;12100;44.384;20.272;2022-10-31T16:41:44;16.00;78.20
23839;DHT22;12100;44.384;20.272;2022-10-31T16:46:44;15.90;78.50
23839;DHT22;12100;44.384;20.272;2022-10-31T16:49:10;15.80;79.10
23839;DHT22;12100;44.384;20.272;2022-10-31T16:51:36;15.70;79.50
23839;DHT22;12100;44.384;20.272;2022-10-31T16:54:02;15.70;79.30
23839;DHT22;12100;44.384;20.272;2022-10-31T16:56:30;15.60;79.60
23839;DHT22;12100;44.384;20.272;2022-10-31T16:59:00;15.60;80.00
23839;DHT22;12100;44.384;20.272;2022-10-31T17:01:26;15.70;80.30
23839;DHT22;12100;44.384;20.272;2022-10-31T17:03:52;15.60;80.40
23839;DHT22;12100;44.384;20.272;2022-10-31T17:06:17;15.60;80.80
23839;DHT22;12100;44.384;20.272;2022-10-31T17:08:43;15.50;81.40
23839;DHT22;12100;44.384;20.272;2022-10-31T17:11:15;15.40;82.60
23839;DHT22;12100;44.384;20.272;2022-10-31T17:13:41;15.20;82.90
23839;DHT22;12100;44.384;20.272;2022-10-31T17:16:07;15.20;83.50
23839;DHT22;12100;44.384;20.272;2022-10-31T17:18:33;15.00;84.30
23839;DHT22;12100;44.384;20.272;2022-10-31T17:21:03;14.90;84.40
23839;DHT22;12100;44.384;20.272;2022-10-31T17:23:31;14.90;84.70
23839;DHT22;12100;44.384;20.272;2022-10-31T17:25:58;14.80;85.40
23839;DHT22;12100;44.384;20.272;2022-10-31T17:28:24;14.80;85.30
23839;DHT22;12100;44.384;20.272;2022-10-31T17:30:56;14.70;85.40
23839;DHT22;12100;44.384;20.272;2022-10-31T17:33:23;14.60;85.90
23839;DHT22;12100;44.384;20.272;2022-10-31T17:35:49;14.40;86.60
23839;DHT22;12100;44.384;20.272;2022-10-31T17:38:15;14.30;87.10
23839;DHT22;12100;44.384;20.272;2022-10-31T17:40:41;14.30;87.60
23839;DHT22;12100;44.384;20.272;2022-10-31T17:43:08;14.20;88.10
23839;DHT22;12100;44.384;20.272;2022-10-31T17:45:34;14.20;88.30
23839;DHT22;12100;44.384;20.272;2022-10-31T17:48:02;14.10;89.00
23839;DHT22;12100;44.384;20.272;2022-10-31T17:50:28;14.10;89.40
23839;DHT22;12100;44.384;20.272;2022-10-31T17:52:54;14.10;89.80
23839;DHT22;12100;44.384;20.272;2022-10-31T17:55:22;14.00;89.80
23839;DHT22;12100;44.384;20.272;2022-10-31T17:57:48;13.80;90.00
23839;DHT22;12100;44.384;20.272;2022-10-31T18:00:17;13.80;90.20
23839;DHT22;12100;44.384;20.272;2022-10-31T18:02:44;13.70;90.40
23839;DHT22;12100;44.384;20.272;2022-10-31T18:05:10;13.60;91.10
23839;DHT22;12100;44.384;20.272;2022-10-31T18:07:35;13.50;91.80
23839;DHT22;12100;44.384;20.272;2022-10-31T18:10:02;13.30;92.30
23839;DHT22;12100;44.384;20.272;2022-10-31T18:12:28;13.40;92.90
23839;DHT22;12100;44.384;20.272;2022-10-31T18:14:56;13.30;93.10
23839;DHT22;12100;44.384;20.272;2022-10-31T18:17:22;13.30;93.40
23839;DHT22;12100;44.384;20.272;2022-10-31T18:19:48;13.30;93.70
23839;DHT22;12100;44.384;20.272;2022-10-31T18:22:14;13.30;93.50
23839;DHT22;12100;44.384;20.272;2022-10-31T18:24:40;13.20;93.50
23839;DHT22;12100;44.384;20.272;2022-10-31T18:27:06;13.20;94.00
23839;DHT22;12100;44.384;20.272;2022-10-31T18:29:32;13.10;94.30
23839;DHT22;12100;44.384;20.272;2022-10-31T18:31:58;13.00;94.70
23839;DHT22;12100;44.384;20.272;2022-10-31T18:34:24;12.90;94.80
23839;DHT22;12100;44.384;20.272;2022-10-31T18:36:51;12.90;95.10
23839;DHT22;12100;44.384;20.272;2022-10-31T18:39:17;12.90;95.10
23839;DHT22;12100;44.384;20.272;2022-10-31T18:41:43;12.80;95.40
23839;DHT22;12100;44.384;20.272;2022-10-31T18:44:09;12.80;95.70
23839;DHT22;12100;44.384;20.272;2022-10-31T18:46:35;12.80;96.00